createdAt,value
2019-05-28T00:00:31.691Z,74.22
2019-05-28T00:01:31.686Z,74.22
2019-05-28T00:02:31.676Z,74.46
2019-05-28T00:03:31.672Z,74.52
2019-05-28T00:04:31.654Z,74.87
2019-05-28T00:05:31.636Z,74.05
2019-05-28T00:06:31.635Z,74.26
2019-05-28T00:07:31.618Z,74.96
2019-05-28T00:08:31.630Z,74.96
2019-05-28T00:09:31.590Z,74.80
2019-05-28T00:10:31.597Z,75.07
2019-05-28T00:11:31.574Z,74.76
2019-05-28T00:12:31.544Z,74.76
2019-05-28T00:13:31.578Z,74.96
2019-05-28T00:14:31.548Z,74.96
2019-05-28T00:15:31.529Z,75.57
2019-05-28T00:16:31.508Z,75.07
2019-05-28T00:17:31.506Z,75.51
2019-05-28T00:18:31.504Z,75.16
2019-05-28T00:19:31.493Z,75.71
2019-05-28T00:20:31.472Z,75.81
2019-05-28T00:21:31.464Z,75.71
2019-05-28T00:22:31.439Z,75.91
2019-05-28T00:23:31.466Z,76.31
2019-05-28T00:24:31.431Z,76.21
2019-05-28T00:25:31.412Z,76.72
2019-05-28T00:26:31.408Z,76.45
2019-05-28T00:27:31.396Z,76.35
2019-05-28T00:28:31.397Z,76.25
2019-05-28T00:29:31.367Z,76.65
2019-05-28T00:30:31.365Z,76.75
2019-05-28T00:31:31.352Z,76.86
2019-05-28T00:32:31.348Z,76.89
2019-05-28T00:33:31.340Z,76.79
2019-05-28T00:34:31.329Z,76.99
2019-05-28T00:35:31.307Z,77.19
2019-05-28T00:36:31.318Z,77.29
2019-05-28T00:37:31.277Z,77.60
2019-05-28T00:38:31.290Z,77.50
2019-05-28T00:39:31.257Z,77.80
2019-05-28T00:40:31.251Z,77.73
2019-05-28T00:41:31.249Z,77.80
2019-05-28T00:42:31.236Z,78.14
2019-05-28T00:43:31.225Z,78.04
2019-05-28T00:44:31.213Z,78.44
2019-05-28T00:45:31.191Z,78.24
2019-05-28T00:46:31.181Z,78.24
2019-05-28T00:47:31.166Z,78.55
2019-05-28T00:48:31.170Z,78.55
2019-05-28T00:49:31.155Z,78.55
2019-05-28T00:50:31.145Z,78.95
2019-05-28T00:51:31.126Z,79.25
2019-05-28T00:52:31.108Z,79.69
2019-05-28T00:53:31.127Z,79.69
2019-05-28T00:54:31.097Z,80.00
2019-05-28T00:55:31.095Z,79.90
2019-05-28T00:56:31.063Z,80.13
2019-05-28T00:57:31.053Z,80.91
2019-05-28T00:58:31.075Z,80.24
2019-05-28T00:59:31.045Z,80.34
2019-05-28T01:00:37.016Z,80.13
2019-05-28T01:01:32.007Z,80.54
2019-05-28T01:02:30.993Z,80.24
2019-05-28T01:03:31.007Z,80.44
2019-05-28T01:04:30.994Z,80.54
2019-05-28T01:05:31.039Z,80.44
2019-05-28T01:06:30.978Z,80.34
2019-05-28T01:07:30.949Z,80.18
2019-05-28T01:08:30.935Z,80.58
2019-05-28T01:09:30.947Z,80.68
2019-05-28T01:10:30.907Z,80.58
2019-05-28T01:11:30.899Z,79.87
2019-05-28T01:12:30.894Z,79.36
2019-05-28T01:13:30.886Z,80.01
2019-05-28T01:14:30.909Z,79.71
2019-05-28T01:15:30.855Z,79.50
2019-05-28T01:16:30.852Z,79.60
2019-05-28T01:17:30.836Z,79.60
2019-05-28T01:18:30.831Z,79.80
2019-05-28T01:19:30.836Z,79.30
2019-05-28T01:20:30.796Z,79.24
2019-05-28T01:21:30.795Z,79.24
2019-05-28T01:22:30.778Z,78.93
2019-05-28T01:23:30.766Z,78.73
2019-05-28T01:24:30.790Z,79.24
2019-05-28T01:25:30.752Z,79.24
2019-05-28T01:26:30.746Z,78.93
2019-05-28T01:27:30.733Z,78.56
2019-05-28T01:28:30.718Z,78.26
2019-05-28T01:29:30.748Z,78.06
2019-05-28T01:30:30.702Z,78.56
2019-05-28T01:31:30.678Z,78.06
2019-05-28T01:32:30.669Z,77.75
2019-05-28T01:33:30.666Z,77.65
2019-05-28T01:34:30.672Z,77.75
2019-05-28T01:35:30.642Z,77.99
2019-05-28T01:36:30.632Z,77.86
2019-05-28T01:37:30.649Z,78.09
2019-05-28T01:38:30.605Z,78.50
2019-05-28T01:39:30.624Z,78.40
2019-05-28T01:40:30.577Z,78.40
2019-05-28T01:41:30.566Z,78.09
2019-05-28T01:42:30.562Z,78.23
2019-05-28T01:43:30.540Z,78.30
2019-05-28T01:44:30.570Z,78.44
2019-05-28T01:45:30.525Z,78.33
2019-05-28T01:46:30.537Z,78.33
2019-05-28T01:47:30.505Z,78.44
2019-05-28T01:48:30.498Z,78.23
2019-05-28T01:49:30.506Z,78.84
2019-05-28T01:50:30.467Z,78.94
2019-05-28T01:51:30.477Z,78.74
2019-05-28T01:52:30.475Z,78.84
2019-05-28T01:53:30.442Z,78.64
2019-05-28T01:54:30.460Z,78.94
2019-05-28T01:55:30.413Z,78.74
2019-05-28T01:56:30.416Z,78.94
2019-05-28T01:57:30.411Z,78.84
2019-05-28T01:58:30.377Z,78.74
2019-05-28T01:59:30.396Z,78.84
2019-05-28T02:00:30.354Z,78.33
2019-05-28T02:01:30.357Z,78.33
2019-05-28T02:02:30.349Z,78.33
2019-05-28T02:03:30.320Z,78.13
2019-05-28T02:04:30.331Z,77.89
2019-05-28T02:05:30.312Z,77.69
2019-05-28T02:06:30.294Z,77.79
2019-05-28T02:07:30.283Z,77.99
2019-05-28T02:08:30.273Z,78.09
2019-05-28T02:09:30.258Z,78.13
2019-05-28T02:10:30.263Z,78.23
2019-05-28T02:11:30.232Z,78.44
2019-05-28T02:12:30.225Z,78.13
2019-05-28T02:13:30.213Z,77.93
2019-05-28T02:14:30.225Z,78.23
2019-05-28T02:15:30.244Z,78.03
2019-05-28T02:16:30.178Z,77.79
2019-05-28T02:17:30.163Z,78.13
2019-05-28T02:18:30.155Z,78.09
2019-05-28T02:19:30.154Z,77.89
2019-05-28T02:20:30.163Z,77.89
2019-05-28T02:21:30.125Z,77.59
2019-05-28T02:22:30.142Z,77.79
2019-05-28T02:23:30.144Z,77.89
2019-05-28T02:24:30.089Z,77.89
2019-05-28T02:25:30.512Z,77.59
2019-05-28T02:26:30.071Z,77.83
2019-05-28T02:27:30.069Z,78.03
2019-05-28T02:28:30.051Z,78.33
2019-05-28T02:29:30.029Z,78.13
2019-05-28T02:30:30.045Z,78.84
2019-05-28T02:31:30.025Z,78.44
2019-05-28T02:32:30.008Z,78.74
2019-05-28T02:33:30.025Z,78.23
2019-05-28T02:34:29.993Z,78.44
2019-05-28T02:35:29.986Z,78.13
2019-05-28T02:36:29.959Z,78.13
2019-05-28T02:37:29.942Z,78.33
2019-05-28T02:38:29.960Z,78.53
2019-05-28T02:39:29.914Z,78.57
2019-05-28T02:40:29.941Z,78.53
2019-05-28T02:41:29.901Z,78.47
2019-05-28T02:42:29.880Z,78.57
2019-05-28T02:43:29.880Z,78.98
2019-05-28T02:44:29.878Z,78.98
2019-05-28T02:45:29.879Z,78.78
2019-05-28T02:46:29.832Z,78.88
2019-05-28T02:47:29.846Z,78.64
2019-05-28T02:48:29.814Z,78.23
2019-05-28T02:49:29.816Z,78.23
2019-05-28T02:50:29.818Z,78.33
2019-05-28T02:51:29.805Z,78.23
2019-05-28T02:52:31.927Z,78.44
2019-05-28T02:53:29.774Z,78.37
2019-05-28T02:54:29.772Z,78.67
2019-05-28T02:55:29.760Z,78.98
2019-05-28T02:56:29.734Z,78.98
2019-05-28T02:57:29.722Z,79.32
2019-05-28T02:58:29.711Z,78.88
2019-05-28T02:59:29.704Z,78.71
2019-05-28T03:00:29.704Z,79.52
2019-05-28T03:01:42.930Z,79.42
2019-05-28T03:02:30.674Z,79.42
2019-05-28T03:03:29.655Z,79.49
2019-05-28T03:04:29.650Z,79.59
2019-05-28T03:05:29.667Z,79.38
2019-05-28T03:06:29.627Z,79.63
2019-05-28T03:07:29.630Z,79.42
2019-05-28T03:08:29.632Z,79.63
2019-05-28T03:09:29.592Z,79.42
2019-05-28T03:10:57.608Z,79.42
2019-05-28T03:11:30.569Z,79.83
2019-05-28T03:12:29.562Z,80.07
2019-05-28T03:13:29.540Z,79.66
2019-05-28T03:14:29.530Z,80.47
2019-05-28T03:15:29.544Z,80.27
2019-05-28T03:16:29.505Z,80.47
2019-05-28T03:17:29.506Z,80.24
2019-05-28T03:18:29.487Z,80.27
2019-05-28T03:19:29.474Z,80.47
2019-05-28T03:20:29.491Z,80.27
2019-05-28T03:21:29.457Z,80.88
2019-05-28T03:22:29.452Z,80.37
2019-05-28T03:23:29.448Z,80.27
2019-05-28T03:24:29.412Z,80.82
2019-05-28T03:25:29.443Z,80.37
2019-05-28T03:26:29.395Z,80.78
2019-05-28T03:27:29.392Z,80.37
2019-05-28T03:28:29.367Z,80.37
2019-05-28T03:29:29.357Z,80.27
2019-05-28T03:30:29.396Z,80.37
2019-05-28T03:31:29.346Z,80.37
2019-05-28T03:32:29.326Z,80.58
2019-05-28T03:33:29.335Z,80.17
2019-05-28T03:34:29.312Z,79.86
2019-05-28T03:35:29.295Z,79.32
2019-05-28T03:36:29.302Z,80.07
2019-05-28T03:37:29.279Z,79.52
2019-05-28T03:38:29.259Z,79.72
2019-05-28T03:39:29.259Z,79.16
2019-05-28T03:40:29.261Z,79.36
2019-05-28T03:41:29.255Z,79.77
2019-05-28T03:42:29.221Z,79.72
2019-05-28T03:43:29.208Z,79.63
2019-05-28T03:44:29.201Z,79.77
2019-05-28T03:45:29.183Z,79.46
2019-05-28T03:46:29.191Z,79.86
2019-05-28T03:47:29.173Z,79.46
2019-05-28T03:48:29.157Z,79.36
2019-05-28T03:49:29.143Z,79.25
2019-05-28T03:50:29.145Z,79.46
2019-05-28T03:51:29.133Z,79.02
2019-05-28T03:52:29.117Z,79.36
2019-05-28T03:53:29.096Z,79.66
2019-05-28T03:54:29.091Z,79.66
2019-05-28T03:55:29.074Z,79.32
2019-05-28T03:56:29.091Z,79.42
2019-05-28T03:57:29.050Z,79.32
2019-05-28T03:58:29.103Z,79.42
2019-05-28T03:59:29.051Z,79.32
2019-05-28T04:00:29.022Z,79.63
2019-05-28T04:01:29.037Z,79.22
2019-05-28T04:02:28.993Z,79.63
2019-05-28T04:03:29.044Z,79.22
2019-05-28T04:04:28.973Z,79.42
2019-05-28T04:05:28.999Z,79.69
2019-05-28T04:06:28.980Z,78.88
2019-05-28T04:07:29.002Z,78.67
2019-05-28T04:08:28.928Z,78.71
2019-05-28T04:09:28.932Z,78.67
2019-05-28T04:10:28.911Z,78.06
2019-05-28T04:11:43.925Z,77.80
2019-05-28T04:12:29.882Z,78.17
2019-05-28T04:13:28.873Z,78.30
2019-05-28T04:14:28.861Z,78.37
2019-05-28T04:15:28.863Z,78.20
2019-05-28T04:16:28.858Z,78.30
2019-05-28T04:17:28.839Z,78.61
2019-05-28T04:18:28.828Z,78.51
2019-05-28T04:19:28.823Z,78.30
2019-05-28T04:20:28.800Z,78.71
2019-05-28T04:21:28.807Z,78.51
2019-05-28T04:22:28.766Z,78.91
2019-05-28T04:23:28.765Z,78.71
2019-05-28T04:24:28.758Z,78.41
2019-05-28T04:25:28.745Z,78.51
2019-05-28T04:26:28.788Z,78.41
2019-05-28T04:27:28.734Z,78.71
2019-05-28T04:28:28.708Z,78.91
2019-05-28T04:29:28.698Z,78.41
2019-05-28T04:30:28.699Z,78.41
2019-05-28T04:31:28.718Z,78.81
2019-05-28T04:32:39.963Z,78.71
2019-05-28T04:33:29.716Z,78.71
2019-05-28T04:34:28.639Z,78.61
2019-05-28T04:35:28.632Z,78.71
2019-05-28T04:36:28.621Z,78.51
2019-05-28T04:37:28.655Z,78.51
2019-05-28T04:38:28.608Z,77.86
2019-05-28T04:39:28.595Z,78.00
2019-05-28T04:40:28.583Z,77.49
2019-05-28T04:41:28.569Z,77.70
2019-05-28T04:42:28.591Z,77.59
2019-05-28T04:43:28.556Z,78.00
2019-05-28T04:44:28.540Z,77.90
2019-05-28T04:45:28.524Z,78.10
2019-05-28T04:46:28.514Z,77.66
2019-05-28T04:47:28.522Z,77.66
2019-05-28T04:48:28.531Z,77.05
2019-05-28T04:49:28.498Z,76.95
2019-05-28T04:50:28.467Z,76.64
2019-05-28T04:51:28.464Z,76.75
2019-05-28T04:52:30.691Z,77.05
2019-05-28T04:53:28.435Z,76.54
2019-05-28T04:54:28.444Z,76.40
2019-05-28T04:55:28.403Z,76.54
2019-05-28T04:56:28.405Z,76.61
2019-05-28T04:57:28.426Z,76.54
2019-05-28T04:58:28.381Z,76.85
2019-05-28T04:59:28.366Z,76.51
2019-05-28T05:00:28.351Z,76.24
2019-05-28T05:01:28.346Z,76.14
2019-05-28T05:02:28.369Z,76.44
2019-05-28T05:03:28.318Z,76.03
2019-05-28T05:04:28.309Z,76.54
2019-05-28T05:05:28.303Z,76.64
2019-05-28T05:06:28.292Z,76.64
2019-05-28T05:07:28.303Z,76.85
2019-05-28T05:08:28.263Z,77.25
2019-05-28T05:09:28.256Z,77.36
2019-05-28T05:10:28.243Z,77.15
2019-05-28T05:11:28.249Z,76.85
2019-05-28T05:12:28.252Z,76.75
2019-05-28T05:13:28.213Z,77.05
2019-05-28T05:14:28.265Z,76.75
2019-05-28T05:15:28.191Z,76.64
2019-05-28T05:16:28.180Z,76.61
2019-05-28T05:17:28.204Z,76.64
2019-05-28T05:18:28.159Z,76.31
2019-05-28T05:19:28.144Z,76.31
2019-05-28T05:20:28.132Z,76.40
2019-05-28T05:21:28.117Z,76.31
2019-05-28T05:22:28.130Z,76.10
2019-05-28T05:23:28.099Z,76.40
2019-05-28T05:24:28.089Z,76.20
2019-05-28T05:25:28.084Z,76.20
2019-05-28T05:26:28.060Z,75.90
2019-05-28T05:27:28.072Z,75.70
2019-05-28T05:28:28.055Z,76.20
2019-05-28T05:29:28.041Z,75.79
2019-05-28T05:30:28.028Z,76.31
2019-05-28T05:31:28.026Z,76.27
2019-05-28T05:32:28.029Z,75.66
2019-05-28T05:33:27.998Z,75.56
2019-05-28T05:34:27.970Z,75.35
2019-05-28T05:35:27.985Z,75.05
2019-05-28T05:36:27.961Z,75.01
2019-05-28T05:37:27.977Z,74.71
2019-05-28T05:38:28.042Z,74.51
2019-05-28T05:39:27.939Z,74.81
2019-05-28T05:40:27.920Z,74.21
2019-05-28T05:41:27.916Z,74.61
2019-05-28T05:42:27.892Z,74.81
2019-05-28T05:43:27.909Z,74.21
2019-05-28T05:44:27.871Z,74.30
2019-05-28T05:45:27.890Z,74.81
2019-05-28T05:46:27.849Z,74.04
2019-05-28T05:47:27.878Z,74.44
2019-05-28T05:48:27.847Z,74.54
2019-05-28T05:49:27.805Z,74.65
2019-05-28T05:50:27.794Z,74.54
2019-05-28T05:51:27.789Z,74.04
2019-05-28T05:52:27.776Z,74.21
2019-05-28T05:53:27.803Z,74.44
2019-05-28T05:54:27.773Z,74.54
2019-05-28T05:55:27.739Z,73.90
2019-05-28T05:56:27.767Z,74.21
2019-05-28T05:57:27.728Z,74.30
2019-05-28T05:58:27.722Z,74.41
2019-05-28T05:59:27.756Z,74.41
2019-05-28T06:00:27.693Z,74.00
2019-05-28T06:01:27.679Z,74.68
2019-05-28T06:02:27.661Z,73.86
2019-05-28T06:03:39.782Z,74.68
2019-05-28T06:04:28.643Z,74.77
2019-05-28T06:05:27.630Z,73.86
2019-05-28T06:06:27.629Z,73.25
2019-05-28T06:07:27.644Z,73.05
2019-05-28T06:08:27.629Z,73.36
2019-05-28T06:09:27.590Z,73.16
2019-05-28T06:10:27.582Z,73.46
2019-05-28T06:11:27.572Z,73.76
2019-05-28T06:12:27.544Z,74.57
2019-05-28T06:13:27.574Z,74.57
2019-05-28T06:14:27.528Z,73.76
2019-05-28T06:15:27.517Z,74.07
2019-05-28T06:16:27.521Z,73.32
2019-05-28T06:17:27.498Z,73.43
2019-05-28T06:18:27.517Z,72.81
2019-05-28T06:19:27.474Z,72.72
2019-05-28T06:20:27.474Z,72.78
2019-05-28T06:21:27.442Z,72.58
2019-05-28T06:22:27.443Z,71.37
2019-05-28T06:23:27.490Z,71.09
2019-05-28T06:24:27.435Z,71.16
2019-05-28T06:25:27.602Z,71.57
2019-05-28T06:26:27.414Z,71.16
2019-05-28T06:27:27.377Z,71.80
2019-05-28T06:28:27.416Z,72.11
2019-05-28T06:29:27.359Z,71.88
2019-05-28T06:30:27.353Z,71.37
2019-05-28T06:31:27.359Z,71.47
2019-05-28T06:32:27.377Z,71.16
2019-05-28T06:33:27.371Z,71.06
2019-05-28T06:34:27.317Z,71.64
2019-05-28T06:35:27.299Z,70.32
2019-05-28T06:36:27.293Z,70.22
2019-05-28T06:37:27.353Z,70.42
2019-05-28T06:38:27.319Z,69.31
2019-05-28T06:39:27.265Z,70.18
2019-05-28T06:40:27.245Z,69.61
2019-05-28T06:41:27.231Z,69.48
2019-05-28T06:42:27.228Z,68.37
2019-05-28T06:43:27.232Z,68.37
2019-05-28T06:44:27.198Z,68.47
2019-05-28T06:45:27.187Z,68.16
2019-05-28T06:46:27.222Z,69.07
2019-05-28T06:47:27.169Z,68.87
2019-05-28T06:48:27.181Z,68.94
2019-05-28T06:49:27.127Z,68.37
2019-05-28T06:50:27.134Z,67.66
2019-05-28T06:51:27.131Z,67.86
2019-05-28T06:52:27.110Z,67.55
2019-05-28T06:53:27.129Z,67.86
2019-05-28T06:54:27.097Z,68.23
2019-05-28T06:55:27.075Z,67.63
2019-05-28T06:56:27.061Z,67.63
2019-05-28T06:57:27.060Z,67.83
2019-05-28T06:58:38.851Z,67.22
2019-05-28T06:59:28.130Z,66.72
2019-05-28T07:00:27.059Z,66.92
2019-05-28T07:01:28.549Z,67.09
2019-05-28T07:02:26.997Z,66.82
2019-05-28T07:03:27.047Z,66.11
2019-05-28T07:04:32.895Z,66.18
2019-05-28T07:05:27.974Z,65.88
2019-05-28T07:06:26.953Z,66.08
2019-05-28T07:07:26.956Z,66.82
2019-05-28T07:08:26.957Z,67.22
2019-05-28T07:09:26.929Z,66.18
2019-05-28T07:10:26.923Z,65.88
2019-05-28T07:11:26.912Z,65.88
2019-05-28T07:12:26.891Z,65.47
2019-05-28T07:13:26.891Z,65.17
2019-05-28T07:14:26.858Z,64.87
2019-05-28T07:15:26.852Z,65.07
2019-05-28T07:16:26.843Z,65.27
2019-05-28T07:17:26.834Z,64.87
2019-05-28T07:18:26.839Z,64.87
2019-05-28T07:19:26.800Z,65.27
2019-05-28T07:20:26.791Z,64.87
2019-05-28T07:21:26.787Z,64.76
2019-05-28T07:22:26.772Z,64.97
2019-05-28T07:23:26.776Z,65.47
2019-05-28T07:24:26.766Z,64.76
2019-05-28T07:25:26.748Z,64.46
2019-05-28T07:26:26.728Z,63.76
2019-05-28T07:27:26.734Z,64.26
2019-05-28T07:28:26.729Z,64.76
2019-05-28T07:29:26.724Z,65.17
2019-05-28T07:30:26.682Z,65.34
2019-05-28T07:31:26.692Z,63.65
2019-05-28T07:32:26.663Z,63.45
2019-05-28T07:33:27.138Z,63.25
2019-05-28T07:34:30.785Z,63.65
2019-05-28T07:35:26.665Z,62.34
2019-05-28T07:36:26.617Z,62.14
2019-05-28T07:37:26.618Z,62.34
2019-05-28T07:38:26.629Z,63.65
2019-05-28T07:39:26.585Z,63.85
2019-05-28T07:40:31.674Z,63.96
2019-05-28T07:41:27.571Z,63.99
2019-05-28T07:42:32.545Z,63.96
2019-05-28T07:43:27.563Z,64.16
2019-05-28T07:44:26.543Z,63.85
2019-05-28T07:45:26.521Z,64.26
2019-05-28T07:46:26.521Z,63.65
2019-05-28T07:47:26.503Z,63.85
2019-05-28T07:48:26.552Z,64.67
2019-05-28T07:49:26.488Z,64.16
2019-05-28T07:50:26.460Z,64.36
2019-05-28T07:51:26.451Z,64.13
2019-05-28T07:52:26.454Z,63.93
2019-05-28T07:53:39.524Z,63.55
2019-05-28T07:54:27.434Z,63.55
2019-05-28T07:55:26.408Z,63.15
2019-05-28T07:56:26.398Z,63.42
2019-05-28T07:57:26.429Z,63.42
2019-05-28T07:58:26.375Z,63.42
2019-05-28T07:59:26.404Z,63.73
2019-05-28T08:00:26.355Z,63.73
2019-05-28T08:01:26.356Z,63.52
2019-05-28T08:02:26.335Z,63.73
2019-05-28T08:03:26.321Z,62.01
2019-05-28T08:04:26.333Z,61.80
2019-05-28T08:05:26.289Z,62.71
2019-05-28T08:06:26.283Z,63.39
2019-05-28T08:07:26.277Z,62.21
2019-05-28T08:08:26.270Z,61.60
2019-05-28T08:09:26.287Z,62.62
2019-05-28T08:10:29.304Z,62.88
2019-05-28T08:11:26.241Z,62.08
2019-05-28T08:12:26.215Z,61.47
2019-05-28T08:13:39.609Z,61.88
2019-05-28T08:14:27.217Z,61.68
2019-05-28T08:15:26.388Z,61.65
2019-05-28T08:16:26.173Z,61.65
2019-05-28T08:17:26.180Z,61.07
2019-05-28T08:18:26.167Z,60.94
2019-05-28T08:19:26.165Z,61.41
2019-05-28T08:20:26.118Z,60.74
2019-05-28T08:21:26.130Z,61.11
2019-05-28T08:22:40.855Z,59.90
2019-05-28T08:23:27.096Z,60.21
2019-05-28T08:24:26.103Z,60.10
2019-05-28T08:25:45.310Z,60.53
2019-05-28T08:26:27.065Z,60.10
2019-05-28T08:27:26.054Z,60.51
2019-05-28T08:28:26.045Z,61.11
2019-05-28T08:29:26.058Z,60.38
2019-05-28T08:30:26.037Z,60.48
2019-05-28T08:31:26.002Z,59.88
2019-05-28T08:32:26.006Z,58.94
2019-05-28T08:33:25.988Z,60.17
2019-05-28T08:34:25.989Z,58.47
2019-05-28T08:35:25.966Z,58.97
2019-05-28T08:36:25.952Z,58.26
2019-05-28T08:37:25.953Z,58.36
2019-05-28T08:38:25.940Z,57.96
2019-05-28T08:39:25.943Z,59.00
2019-05-28T08:40:25.922Z,59.09
2019-05-28T08:41:25.904Z,59.09
2019-05-28T08:42:25.905Z,59.80
2019-05-28T08:43:25.872Z,59.70
2019-05-28T08:44:25.886Z,59.57
2019-05-28T08:45:25.848Z,59.90
2019-05-28T08:46:25.854Z,59.57
2019-05-28T08:47:25.825Z,60.00
2019-05-28T08:48:25.825Z,60.28
2019-05-28T08:49:25.848Z,59.90
2019-05-28T08:50:34.342Z,60.00
2019-05-28T08:51:26.782Z,59.70
2019-05-28T08:52:25.774Z,58.67
2019-05-28T08:53:25.783Z,58.97
2019-05-28T08:54:25.765Z,59.97
2019-05-28T08:55:25.743Z,60.51
2019-05-28T08:56:25.736Z,59.80
2019-05-28T08:57:25.717Z,60.38
2019-05-28T08:58:25.697Z,60.00
2019-05-28T08:59:25.715Z,59.27
2019-05-28T09:00:25.688Z,58.89
2019-05-28T09:01:25.674Z,58.49
2019-05-28T09:02:28.322Z,58.67
2019-05-28T09:03:25.662Z,58.76
2019-05-28T09:04:25.658Z,57.56
2019-05-28T09:05:26.901Z,56.24
2019-05-28T09:06:27.271Z,56.45
2019-05-28T09:07:25.596Z,56.15
2019-05-28T09:08:38.351Z,56.92
2019-05-28T09:09:26.617Z,57.05
2019-05-28T09:10:25.568Z,56.22
2019-05-28T09:11:25.555Z,56.52
2019-05-28T09:12:25.559Z,56.72
2019-05-28T09:13:25.537Z,57.03
2019-05-28T09:14:25.548Z,56.82
2019-05-28T09:15:25.511Z,56.62
2019-05-28T09:16:25.528Z,57.53
2019-05-28T09:17:25.500Z,57.43
2019-05-28T09:18:25.482Z,56.65
2019-05-28T09:19:25.495Z,56.85
2019-05-28T09:20:25.476Z,57.15
2019-05-28T09:21:25.455Z,57.03
2019-05-28T09:22:26.522Z,57.05
2019-05-28T09:23:25.424Z,56.22
2019-05-28T09:24:27.743Z,55.01
2019-05-28T09:25:25.403Z,54.30
2019-05-28T09:26:25.392Z,54.81
2019-05-28T09:27:25.394Z,55.11
2019-05-28T09:28:30.007Z,55.01
2019-05-28T09:29:26.373Z,55.41
2019-05-28T09:30:25.351Z,55.41
2019-05-28T09:31:25.345Z,56.12
2019-05-28T09:32:25.333Z,56.52
2019-05-28T09:33:25.327Z,56.82
2019-05-28T09:34:25.342Z,57.43
2019-05-28T09:35:41.207Z,57.12
2019-05-28T09:36:26.275Z,57.12
2019-05-28T09:37:25.271Z,56.92
2019-05-28T09:38:25.283Z,56.42
2019-05-28T09:39:25.300Z,56.62
2019-05-28T09:40:25.240Z,56.22
2019-05-28T09:41:25.232Z,56.40
2019-05-28T09:42:25.231Z,56.72
2019-05-28T09:43:25.212Z,56.40
2019-05-28T09:44:25.227Z,57.00
2019-05-28T09:45:25.188Z,56.90
2019-05-28T09:46:25.183Z,57.90
2019-05-28T09:47:25.169Z,58.23
2019-05-28T09:48:25.177Z,57.00
2019-05-28T09:49:25.188Z,57.10
2019-05-28T09:50:30.698Z,55.89
2019-05-28T09:51:26.160Z,54.71
2019-05-28T09:52:25.126Z,56.20
2019-05-28T09:53:25.100Z,57.81
2019-05-28T09:54:25.140Z,57.90
2019-05-28T09:55:25.100Z,57.90
2019-05-28T09:56:25.092Z,56.29
2019-05-28T09:57:25.063Z,57.12
2019-05-28T09:58:25.041Z,57.32
2019-05-28T09:59:40.294Z,57.23
2019-05-28T10:00:26.009Z,56.92
2019-05-28T10:01:25.031Z,56.20
2019-05-28T10:02:25.004Z,56.49
2019-05-28T10:03:25.000Z,56.29
2019-05-28T10:04:43.844Z,56.70
2019-05-28T10:05:25.990Z,56.29
2019-05-28T10:06:36.591Z,56.09
2019-05-28T10:07:25.967Z,55.08
2019-05-28T10:08:24.958Z,55.29
2019-05-28T10:09:24.970Z,54.79
2019-05-28T10:10:24.936Z,55.69
2019-05-28T10:11:24.919Z,54.55
2019-05-28T10:12:24.902Z,53.27
2019-05-28T10:13:38.242Z,53.47
2019-05-28T10:14:25.885Z,53.55
2019-05-28T10:15:24.853Z,53.85
2019-05-28T10:16:24.872Z,53.55
2019-05-28T10:17:24.826Z,53.45
2019-05-28T10:18:24.811Z,53.05
2019-05-28T10:19:24.810Z,53.45
2019-05-28T10:20:24.863Z,54.15
2019-05-28T10:21:24.784Z,53.55
2019-05-28T10:22:24.781Z,53.45
2019-05-28T10:23:24.764Z,53.85
2019-05-28T10:24:24.756Z,52.84
2019-05-28T10:25:24.761Z,53.75
2019-05-28T10:26:24.730Z,53.14
2019-05-28T10:27:24.721Z,52.24
2019-05-28T10:28:24.718Z,52.44
2019-05-28T10:29:24.701Z,52.34
2019-05-28T10:30:24.706Z,52.62
2019-05-28T10:31:24.681Z,52.62
2019-05-28T10:32:24.688Z,52.01
2019-05-28T10:33:24.647Z,50.60
2019-05-28T10:34:24.651Z,50.91
2019-05-28T10:35:24.647Z,50.40
2019-05-28T10:36:35.176Z,51.51
2019-05-28T10:37:25.609Z,49.70
2019-05-28T10:38:24.622Z,50.71
2019-05-28T10:39:24.582Z,49.52
2019-05-28T10:40:24.584Z,49.42
2019-05-28T10:41:24.571Z,48.52
2019-05-28T10:42:24.560Z,48.52
2019-05-28T10:43:24.543Z,49.52
2019-05-28T10:44:24.551Z,49.93
2019-05-28T10:45:24.542Z,50.43
2019-05-28T10:46:24.501Z,50.81
2019-05-28T10:47:24.526Z,50.31
2019-05-28T10:48:24.524Z,49.50
2019-05-28T10:49:24.479Z,49.68
2019-05-28T10:50:24.489Z,48.79
2019-05-28T10:51:24.470Z,49.18
2019-05-28T10:52:24.446Z,49.57
2019-05-28T10:53:24.429Z,49.18
2019-05-28T10:54:24.432Z,48.97
2019-05-28T10:55:24.435Z,48.77
2019-05-28T10:56:24.427Z,49.48
2019-05-28T10:57:24.386Z,50.18
2019-05-28T10:58:24.371Z,48.87
2019-05-28T10:59:24.364Z,48.67
2019-05-28T11:00:24.420Z,48.87
2019-05-28T11:01:24.342Z,49.27
2019-05-28T11:02:24.346Z,48.57
2019-05-28T11:03:24.319Z,48.87
2019-05-28T11:04:24.304Z,48.07
2019-05-28T11:05:24.321Z,48.17
2019-05-28T11:06:24.289Z,48.99
2019-05-28T11:07:24.277Z,48.49
2019-05-28T11:08:24.285Z,48.59
2019-05-28T11:09:24.264Z,49.19
2019-05-28T11:10:25.030Z,48.49
2019-05-28T11:11:24.231Z,48.47
2019-05-28T11:12:24.221Z,48.59
2019-05-28T11:13:24.214Z,49.07
2019-05-28T11:14:24.205Z,48.97
2019-05-28T11:15:24.244Z,49.07
2019-05-28T11:16:24.181Z,49.27
2019-05-28T11:17:24.171Z,49.07
2019-05-28T11:18:24.157Z,49.68
2019-05-28T11:19:24.159Z,49.48
2019-05-28T11:20:24.147Z,49.37
2019-05-28T11:21:24.154Z,49.57
2019-05-28T11:22:24.110Z,49.27
2019-05-28T11:23:24.100Z,49.68
2019-05-28T11:24:24.086Z,49.77
2019-05-28T11:25:24.094Z,49.48
2019-05-28T11:26:24.072Z,49.88
2019-05-28T11:27:24.300Z,49.57
2019-05-28T11:28:24.041Z,48.87
2019-05-28T11:29:24.031Z,49.07
2019-05-28T11:30:24.041Z,49.76
2019-05-28T11:31:24.010Z,49.05
2019-05-28T11:32:24.011Z,49.45
2019-05-28T11:33:24.003Z,50.66
2019-05-28T11:34:24.007Z,49.53
2019-05-28T11:35:24.065Z,49.83
2019-05-28T11:36:23.958Z,50.03
2019-05-28T11:37:23.942Z,49.73
2019-05-28T11:38:23.939Z,49.45
2019-05-28T11:39:23.923Z,50.46
2019-05-28T11:40:23.955Z,50.46
2019-05-28T11:41:40.560Z,50.86
2019-05-28T11:42:24.889Z,50.56
2019-05-28T11:43:23.872Z,51.26
2019-05-28T11:44:23.862Z,49.27
2019-05-28T11:45:23.899Z,49.18
2019-05-28T11:46:23.841Z,49.18
2019-05-28T11:47:23.838Z,49.48
2019-05-28T11:48:23.821Z,48.67
2019-05-28T11:49:23.816Z,49.68
2019-05-28T11:50:23.839Z,49.48
2019-05-28T11:51:23.786Z,49.27
2019-05-28T11:52:23.780Z,48.95
2019-05-28T11:53:23.772Z,49.15
2019-05-28T11:54:23.770Z,49.15
2019-05-28T11:55:23.761Z,48.25
2019-05-28T11:56:23.761Z,48.44
2019-05-28T11:57:23.715Z,48.55
2019-05-28T11:58:23.732Z,49.57
2019-05-28T11:59:23.707Z,49.07
2019-05-28T12:00:23.721Z,50.26
2019-05-28T12:01:34.226Z,50.86
2019-05-28T12:02:24.661Z,49.77
2019-05-28T12:03:23.654Z,49.48
2019-05-28T12:04:23.658Z,50.38
2019-05-28T12:05:23.697Z,49.77
2019-05-28T12:06:23.623Z,49.77
2019-05-28T12:07:26.418Z,50.58
2019-05-28T12:08:23.599Z,49.68
2019-05-28T12:09:23.582Z,49.15
2019-05-28T12:10:23.617Z,49.57
2019-05-28T12:11:23.570Z,49.37
2019-05-28T12:12:23.573Z,49.27
2019-05-28T12:13:23.537Z,49.68
2019-05-28T12:14:23.563Z,49.37
2019-05-28T12:15:23.533Z,49.57
2019-05-28T12:16:23.653Z,48.97
2019-05-28T12:17:40.654Z,49.37
2019-05-28T12:18:24.513Z,49.77
2019-05-28T12:19:23.509Z,49.88
2019-05-28T12:20:23.468Z,50.48
2019-05-28T12:21:23.519Z,50.38
2019-05-28T12:22:23.449Z,50.28
2019-05-28T12:23:23.441Z,50.18
2019-05-28T12:24:27.856Z,50.68
2019-05-28T12:25:24.399Z,50.78
2019-05-28T12:26:23.419Z,50.98
2019-05-28T12:27:23.385Z,51.09
2019-05-28T12:28:37.007Z,51.39
2019-05-28T12:29:24.414Z,51.18
2019-05-28T12:30:23.356Z,50.98
2019-05-28T12:31:23.366Z,52.17
2019-05-28T12:32:23.364Z,52.17
2019-05-28T12:33:23.326Z,51.36
2019-05-28T12:34:23.320Z,50.15
2019-05-28T12:35:28.769Z,50.35
2019-05-28T12:36:24.327Z,49.25
2019-05-28T12:37:23.289Z,49.76
2019-05-28T12:38:23.261Z,49.45
2019-05-28T12:39:23.266Z,49.25
2019-05-28T12:40:23.264Z,48.95
2019-05-28T12:41:23.251Z,50.05
2019-05-28T12:42:23.218Z,50.96
2019-05-28T12:43:23.216Z,51.46
2019-05-28T12:44:23.197Z,51.26
2019-05-28T12:45:34.872Z,49.63
2019-05-28T12:46:24.218Z,49.02
2019-05-28T12:47:23.170Z,49.73
2019-05-28T12:48:23.208Z,49.63
2019-05-28T12:49:23.177Z,49.33
2019-05-28T12:50:23.172Z,48.93
2019-05-28T12:51:23.151Z,49.33
2019-05-28T12:52:23.120Z,49.30